Pagrindinis puslapis
METAR-TAF:

METAR-TAF

Oro uostai :

Sindal, Danija

platuma: 57-30N, ilguma: 010-13E, Aukštis: 28 m

Dabartinis oras

Ataskaita buvo paskelbta 1 valandą ir 2 minutes, ne 09:50 UTC
Vėjas 16 kt iš Vakarų/Šiaurės Vakarų su gūsio iki 26 kt
Temperatūra 8°C
Drėgmė 66%
Slėgis 994 hPa
Matomumas 10 km arba daugiau
Mažai debesys ne aukštis 3000 ft

METAR: EKSN 220950Z 29016G26KT 9999 FEW030 08/02 Q0994

Laikas: 12:52 (10:52 UTC)

Prognozė

Ataskaita buvo paskelbta 1 valandą ir 55 minutes, ne 08:57 UTC
Prognozė galioja nuo 22 metu 09 UTC su 22 metu 14 UTC
Vėjas 12 kt iš Vakarų/Šiaurės Vakarų
Matomumas 10 km arba daugiau
Mažai debesys ne aukštis 4000 ft
Laikinai
nuo 22 metu 09 UTC su 22 metu 14 UTC
Vėjas 15 kt iš Vakarų/Šiaurės Vakarų su gūsio iki 30 kt

TAF: EKSN 220857Z 2209/2214 29012KT 9999 FEW040 TEMPO 2209/2214 30015G30KT

Orai ataskaitas ir orų prognozės (METAR, TAF).

turimą stotys yra geltonos ir raudonos taškus žemėlapyje.

Perkelti pele per norėdami pamatyti stoties vardą.

Tada spustelėkite, norėdami matyti oro stebėjimo ir prognozės.

Norėdami pakeisti žemėlapį: spustelėkite ant žalios mygtukų su juodo kryžiaus žemyn,; žalią mygtuką su brūkšneliu, jei norite nutolinti; arba žalių rodyklių gretimoms žemėlapius.


METAR-TAF: